sensor_id;sensor_type;location;lat;lon;timestamp;temperature;humidity
66568;DHT22;53422;49.296;6.900;2024-03-07T00:00:11;6.90;99.90
66568;DHT22;53422;49.296;6.900;2024-03-07T00:02:50;6.90;99.90
66568;DHT22;53422;49.296;6.900;2024-03-07T00:05:20;6.90;99.90
66568;DHT22;53422;49.296;6.900;2024-03-07T00:07:46;6.90;99.90
66568;DHT22;53422;49.296;6.900;2024-03-07T00:10:12;6.90;99.90
66568;DHT22;53422;49.296;6.900;2024-03-07T00:12:39;6.90;99.90
66568;DHT22;53422;49.296;6.900;2024-03-07T00:15:10;6.90;99.90
66568;DHT22;53422;49.296;6.900;2024-03-07T00:17:39;6.90;99.90
66568;DHT22;53422;49.296;6.900;2024-03-07T00:20:05;6.90;99.90
66568;DHT22;53422;49.296;6.900;2024-03-07T00:22:35;6.90;99.90
66568;DHT22;53422;49.296;6.900;2024-03-07T00:25:01;6.90;99.90
66568;DHT22;53422;49.296;6.900;2024-03-07T00:27:27;6.90;99.90
66568;DHT22;53422;49.296;6.900;2024-03-07T00:29:52;6.90;99.90
66568;DHT22;53422;49.296;6.900;2024-03-07T00:32:22;6.90;99.90
66568;DHT22;53422;49.296;6.900;2024-03-07T00:34:48;6.90;99.90
66568;DHT22;53422;49.296;6.900;2024-03-07T00:37:14;6.90;99.90
66568;DHT22;53422;49.296;6.900;2024-03-07T00:39:40;6.90;99.90
66568;DHT22;53422;49.296;6.900;2024-03-07T00:42:06;6.90;99.90
66568;DHT22;53422;49.296;6.900;2024-03-07T00:44:32;6.80;99.90
66568;DHT22;53422;49.296;6.900;2024-03-07T00:46:58;6.80;99.90
66568;DHT22;53422;49.296;6.900;2024-03-07T00:49:23;6.80;99.90
66568;DHT22;53422;49.296;6.900;2024-03-07T00:51:49;6.80;99.90
66568;DHT22;53422;49.296;6.900;2024-03-07T00:54:15;6.80;99.90
66568;DHT22;53422;49.296;6.900;2024-03-07T00:56:41;6.80;99.90
66568;DHT22;53422;49.296;6.900;2024-03-07T00:59:07;6.80;99.90
66568;DHT22;53422;49.296;6.900;2024-03-07T01:01:32;6.80;99.90
66568;DHT22;53422;49.296;6.900;2024-03-07T01:04:00;6.80;99.90
66568;DHT22;53422;49.296;6.900;2024-03-07T01:06:25;6.80;99.90
66568;DHT22;53422;49.296;6.900;2024-03-07T01:08:51;6.80;99.90
66568;DHT22;53422;49.296;6.900;2024-03-07T01:11:17;6.80;99.90
66568;DHT22;53422;49.296;6.900;2024-03-07T01:13:43;6.70;99.90
66568;DHT22;53422;49.296;6.900;2024-03-07T01:16:09;6.80;99.90
66568;DHT22;53422;49.296;6.900;2024-03-07T01:18:34;6.70;99.90
66568;DHT22;53422;49.296;6.900;2024-03-07T01:21:01;6.70;99.90
66568;DHT22;53422;49.296;6.900;2024-03-07T01:23:27;6.70;99.90
66568;DHT22;53422;49.296;6.900;2024-03-07T01:25:55;6.70;99.90
66568;DHT22;53422;49.296;6.900;2024-03-07T01:28:25;6.70;99.90
66568;DHT22;53422;49.296;6.900;2024-03-07T01:30:51;6.70;99.90
66568;DHT22;53422;49.296;6.900;2024-03-07T01:33:18;6.60;99.90
66568;DHT22;53422;49.296;6.900;2024-03-07T01:35:44;6.60;99.90
66568;DHT22;53422;49.296;6.900;2024-03-07T01:38:11;6.60;99.90
66568;DHT22;53422;49.296;6.900;2024-03-07T01:40:39;6.60;99.90
66568;DHT22;53422;49.296;6.900;2024-03-07T01:43:06;6.60;99.90
66568;DHT22;53422;49.296;6.900;2024-03-07T01:45:31;6.60;99.90
66568;DHT22;53422;49.296;6.900;2024-03-07T01:47:57;6.60;99.90
66568;DHT22;53422;49.296;6.900;2024-03-07T01:50:23;6.60;99.90
66568;DHT22;53422;49.296;6.900;2024-03-07T01:52:50;6.50;99.90
66568;DHT22;53422;49.296;6.900;2024-03-07T01:55:18;6.50;99.90
66568;DHT22;53422;49.296;6.900;2024-03-07T01:57:44;6.50;99.90
66568;DHT22;53422;49.296;6.900;2024-03-07T02:00:11;6.50;99.90
66568;DHT22;53422;49.296;6.900;2024-03-07T02:02:37;6.50;99.90
66568;DHT22;53422;49.296;6.900;2024-03-07T02:05:03;6.50;99.90
66568;DHT22;53422;49.296;6.900;2024-03-07T02:07:30;6.50;99.90
66568;DHT22;53422;49.296;6.900;2024-03-07T02:10:00;6.50;99.90
66568;DHT22;53422;49.296;6.900;2024-03-07T02:12:26;6.50;99.90
66568;DHT22;53422;49.296;6.900;2024-03-07T02:14:52;6.50;99.90
66568;DHT22;53422;49.296;6.900;2024-03-07T02:17:18;6.50;99.90
66568;DHT22;53422;49.296;6.900;2024-03-07T02:19:45;6.50;99.90
66568;DHT22;53422;49.296;6.900;2024-03-07T02:22:12;6.50;99.90
66568;DHT22;53422;49.296;6.900;2024-03-07T02:24:38;6.50;99.90
66568;DHT22;53422;49.296;6.900;2024-03-07T02:27:04;6.40;99.90
66568;DHT22;53422;49.296;6.900;2024-03-07T02:29:29;6.40;99.90
66568;DHT22;53422;49.296;6.900;2024-03-07T02:31:56;6.40;99.90
66568;DHT22;53422;49.296;6.900;2024-03-07T02:34:22;6.40;99.90
66568;DHT22;53422;49.296;6.900;2024-03-07T02:36:47;6.40;99.90
66568;DHT22;53422;49.296;6.900;2024-03-07T02:39:13;6.40;99.90
66568;DHT22;53422;49.296;6.900;2024-03-07T02:41:39;6.40;99.90
66568;DHT22;53422;49.296;6.900;2024-03-07T02:44:04;6.40;99.90
66568;DHT22;53422;49.296;6.900;2024-03-07T02:46:30;6.40;99.90
66568;DHT22;53422;49.296;6.900;2024-03-07T02:48:57;6.40;99.90
66568;DHT22;53422;49.296;6.900;2024-03-07T02:51:23;6.40;99.90
66568;DHT22;53422;49.296;6.900;2024-03-07T02:53:49;6.40;99.90
66568;DHT22;53422;49.296;6.900;2024-03-07T02:56:15;6.40;99.90
66568;DHT22;53422;49.296;6.900;2024-03-07T02:58:41;6.40;99.90
66568;DHT22;53422;49.296;6.900;2024-03-07T03:01:06;6.40;99.90
66568;DHT22;53422;49.296;6.900;2024-03-07T03:03:32;6.40;99.90
66568;DHT22;53422;49.296;6.900;2024-03-07T03:05:58;6.30;99.90
66568;DHT22;53422;49.296;6.900;2024-03-07T03:08:25;6.30;99.90
66568;DHT22;53422;49.296;6.900;2024-03-07T03:10:51;6.30;99.90
66568;DHT22;53422;49.296;6.900;2024-03-07T03:13:17;6.30;99.90
66568;DHT22;53422;49.296;6.900;2024-03-07T03:15:43;6.20;99.90
66568;DHT22;53422;49.296;6.900;2024-03-07T03:18:08;6.20;99.90
66568;DHT22;53422;49.296;6.900;2024-03-07T03:20:35;6.20;99.90
66568;DHT22;53422;49.296;6.900;2024-03-07T03:23:04;6.20;99.90
66568;DHT22;53422;49.296;6.900;2024-03-07T03:25:32;6.20;99.90
66568;DHT22;53422;49.296;6.900;2024-03-07T03:28:04;6.10;99.90
66568;DHT22;53422;49.296;6.900;2024-03-07T03:30:30;6.20;99.90
66568;DHT22;53422;49.296;6.900;2024-03-07T03:32:58;6.20;99.90
66568;DHT22;53422;49.296;6.900;2024-03-07T03:35:24;6.10;99.90
66568;DHT22;53422;49.296;6.900;2024-03-07T03:37:49;6.10;99.90
66568;DHT22;53422;49.296;6.900;2024-03-07T03:40:15;6.20;99.90
66568;DHT22;53422;49.296;6.900;2024-03-07T03:42:42;6.10;99.90
66568;DHT22;53422;49.296;6.900;2024-03-07T03:45:09;6.10;99.90
66568;DHT22;53422;49.296;6.900;2024-03-07T03:47:39;6.10;99.90
66568;DHT22;53422;49.296;6.900;2024-03-07T03:50:06;6.10;99.90
66568;DHT22;53422;49.296;6.900;2024-03-07T03:52:33;6.00;99.90
66568;DHT22;53422;49.296;6.900;2024-03-07T03:55:00;6.10;99.90
66568;DHT22;53422;49.296;6.900;2024-03-07T03:57:27;6.10;99.90
66568;DHT22;53422;49.296;6.900;2024-03-07T03:59:53;6.10;99.90
66568;DHT22;53422;49.296;6.900;2024-03-07T04:02:19;6.10;99.90
66568;DHT22;53422;49.296;6.900;2024-03-07T04:04:44;6.10;99.90
66568;DHT22;53422;49.296;6.900;2024-03-07T04:07:13;6.20;99.90
66568;DHT22;53422;49.296;6.900;2024-03-07T04:09:39;6.20;99.90
66568;DHT22;53422;49.296;6.900;2024-03-07T04:12:04;6.20;99.90
66568;DHT22;53422;49.296;6.900;2024-03-07T04:14:31;6.20;99.90
66568;DHT22;53422;49.296;6.900;2024-03-07T04:16:58;6.10;99.90
66568;DHT22;53422;49.296;6.900;2024-03-07T04:19:24;6.10;99.90
66568;DHT22;53422;49.296;6.900;2024-03-07T04:21:51;6.10;99.90
66568;DHT22;53422;49.296;6.900;2024-03-07T04:24:17;6.10;99.90
66568;DHT22;53422;49.296;6.900;2024-03-07T04:26:42;6.20;99.90
66568;DHT22;53422;49.296;6.900;2024-03-07T04:29:08;6.10;99.90
66568;DHT22;53422;49.296;6.900;2024-03-07T04:31:34;6.10;99.90
66568;DHT22;53422;49.296;6.900;2024-03-07T04:34:00;6.10;99.90
66568;DHT22;53422;49.296;6.900;2024-03-07T04:36:25;6.10;99.90
66568;DHT22;53422;49.296;6.900;2024-03-07T04:38:52;6.10;99.90
66568;DHT22;53422;49.296;6.900;2024-03-07T04:41:18;6.10;99.90
66568;DHT22;53422;49.296;6.900;2024-03-07T04:43:44;6.10;99.90
66568;DHT22;53422;49.296;6.900;2024-03-07T04:46:10;6.10;99.90
66568;DHT22;53422;49.296;6.900;2024-03-07T04:48:36;6.00;99.90
66568;DHT22;53422;49.296;6.900;2024-03-07T04:51:02;6.10;99.90
66568;DHT22;53422;49.296;6.900;2024-03-07T04:53:28;6.10;99.90
66568;DHT22;53422;49.296;6.900;2024-03-07T04:55:54;6.00;99.90
66568;DHT22;53422;49.296;6.900;2024-03-07T04:58:21;6.00;99.90
66568;DHT22;53422;49.296;6.900;2024-03-07T05:00:47;6.00;99.90
66568;DHT22;53422;49.296;6.900;2024-03-07T05:03:13;6.00;99.90
66568;DHT22;53422;49.296;6.900;2024-03-07T05:05:38;6.00;99.90
66568;DHT22;53422;49.296;6.900;2024-03-07T05:08:04;6.00;99.90
66568;DHT22;53422;49.296;6.900;2024-03-07T05:10:30;6.10;99.90
66568;DHT22;53422;49.296;6.900;2024-03-07T05:12:56;6.10;99.90
66568;DHT22;53422;49.296;6.900;2024-03-07T05:15:24;6.10;99.90
66568;DHT22;53422;49.296;6.900;2024-03-07T05:17:52;6.10;99.90
66568;DHT22;53422;49.296;6.900;2024-03-07T05:20:17;6.00;99.90
66568;DHT22;53422;49.296;6.900;2024-03-07T05:22:43;6.00;99.90
66568;DHT22;53422;49.296;6.900;2024-03-07T05:25:18;6.00;99.90
66568;DHT22;53422;49.296;6.900;2024-03-07T05:27:44;6.00;99.90
66568;DHT22;53422;49.296;6.900;2024-03-07T05:30:10;5.90;99.90
66568;DHT22;53422;49.296;6.900;2024-03-07T05:32:39;5.90;99.90
66568;DHT22;53422;49.296;6.900;2024-03-07T05:35:05;5.80;99.90
66568;DHT22;53422;49.296;6.900;2024-03-07T05:37:31;5.70;99.90
66568;DHT22;53422;49.296;6.900;2024-03-07T05:39:57;5.70;99.90
66568;DHT22;53422;49.296;6.900;2024-03-07T05:42:23;5.80;99.90
66568;DHT22;53422;49.296;6.900;2024-03-07T05:44:50;5.70;99.90
66568;DHT22;53422;49.296;6.900;2024-03-07T05:47:16;5.70;99.90
66568;DHT22;53422;49.296;6.900;2024-03-07T05:49:43;5.70;99.90
66568;DHT22;53422;49.296;6.900;2024-03-07T05:52:09;5.60;99.90
66568;DHT22;53422;49.296;6.900;2024-03-07T05:54:35;5.60;99.90
66568;DHT22;53422;49.296;6.900;2024-03-07T05:57:01;5.70;99.90
66568;DHT22;53422;49.296;6.900;2024-03-07T05:59:27;5.70;99.90
66568;DHT22;53422;49.296;6.900;2024-03-07T06:01:59;5.70;99.90
66568;DHT22;53422;49.296;6.900;2024-03-07T06:04:24;5.70;99.90
66568;DHT22;53422;49.296;6.900;2024-03-07T06:06:50;5.70;99.90
66568;DHT22;53422;49.296;6.900;2024-03-07T06:09:16;5.70;99.90
66568;DHT22;53422;49.296;6.900;2024-03-07T06:11:47;5.70;99.90
66568;DHT22;53422;49.296;6.900;2024-03-07T06:14:12;5.70;99.90
66568;DHT22;53422;49.296;6.900;2024-03-07T06:16:40;5.70;99.90
66568;DHT22;53422;49.296;6.900;2024-03-07T06:19:07;5.70;99.90
66568;DHT22;53422;49.296;6.900;2024-03-07T06:21:34;5.70;99.90
66568;DHT22;53422;49.296;6.900;2024-03-07T06:24:00;5.70;99.90
66568;DHT22;53422;49.296;6.900;2024-03-07T06:26:30;5.70;99.90
66568;DHT22;53422;49.296;6.900;2024-03-07T06:29:04;5.70;99.90
66568;DHT22;53422;49.296;6.900;2024-03-07T06:31:33;5.60;99.90
66568;DHT22;53422;49.296;6.900;2024-03-07T06:34:00;5.60;99.90
66568;DHT22;53422;49.296;6.900;2024-03-07T06:36:25;5.60;99.90
66568;DHT22;53422;49.296;6.900;2024-03-07T06:38:51;5.60;99.90
66568;DHT22;53422;49.296;6.900;2024-03-07T06:41:17;5.60;99.90
66568;DHT22;53422;49.296;6.900;2024-03-07T06:43:46;5.60;99.90
66568;DHT22;53422;49.296;6.900;2024-03-07T06:46:12;5.60;99.90
66568;DHT22;53422;49.296;6.900;2024-03-07T06:48:44;5.60;99.90
66568;DHT22;53422;49.296;6.900;2024-03-07T06:51:10;5.60;99.90
66568;DHT22;53422;49.296;6.900;2024-03-07T06:53:36;5.50;99.90
66568;DHT22;53422;49.296;6.900;2024-03-07T06:56:01;5.40;99.90
66568;DHT22;53422;49.296;6.900;2024-03-07T06:58:27;5.40;99.90
66568;DHT22;53422;49.296;6.900;2024-03-07T07:00:53;5.50;99.90
66568;DHT22;53422;49.296;6.900;2024-03-07T07:03:23;5.50;99.90
66568;DHT22;53422;49.296;6.900;2024-03-07T07:05:50;5.40;99.90
66568;DHT22;53422;49.296;6.900;2024-03-07T07:08:16;5.40;99.90
66568;DHT22;53422;49.296;6.900;2024-03-07T07:10:42;5.40;99.90
66568;DHT22;53422;49.296;6.900;2024-03-07T07:13:08;5.50;99.90
66568;DHT22;53422;49.296;6.900;2024-03-07T07:15:34;5.40;99.90
66568;DHT22;53422;49.296;6.900;2024-03-07T07:18:02;5.50;99.90
66568;DHT22;53422;49.296;6.900;2024-03-07T07:20:28;5.50;99.90
66568;DHT22;53422;49.296;6.900;2024-03-07T07:22:54;5.40;99.90
66568;DHT22;53422;49.296;6.900;2024-03-07T07:25:20;5.40;99.90
66568;DHT22;53422;49.296;6.900;2024-03-07T07:27:47;5.40;99.90
66568;DHT22;53422;49.296;6.900;2024-03-07T07:30:18;5.40;99.90
66568;DHT22;53422;49.296;6.900;2024-03-07T07:32:45;5.40;99.90
66568;DHT22;53422;49.296;6.900;2024-03-07T07:35:11;5.40;99.90
66568;DHT22;53422;49.296;6.900;2024-03-07T07:37:45;5.40;99.90
66568;DHT22;53422;49.296;6.900;2024-03-07T07:40:16;5.40;99.90
66568;DHT22;53422;49.296;6.900;2024-03-07T07:42:48;5.30;99.90
66568;DHT22;53422;49.296;6.900;2024-03-07T07:45:15;5.30;99.90
66568;DHT22;53422;49.296;6.900;2024-03-07T07:47:51;5.30;99.90
66568;DHT22;53422;49.296;6.900;2024-03-07T07:50:20;5.30;99.90
66568;DHT22;53422;49.296;6.900;2024-03-07T07:52:48;5.30;99.90
66568;DHT22;53422;49.296;6.900;2024-03-07T07:55:19;5.30;99.90
66568;DHT22;53422;49.296;6.900;2024-03-07T07:57:46;5.30;99.90
66568;DHT22;53422;49.296;6.900;2024-03-07T08:00:16;5.40;99.90
66568;DHT22;53422;49.296;6.900;2024-03-07T08:02:56;5.30;99.90
66568;DHT22;53422;49.296;6.900;2024-03-07T08:05:26;5.40;99.90
66568;DHT22;53422;49.296;6.900;2024-03-07T08:07:55;5.40;99.90
66568;DHT22;53422;49.296;6.900;2024-03-07T08:10:24;5.40;99.90
66568;DHT22;53422;49.296;6.900;2024-03-07T08:12:51;5.40;99.90
66568;DHT22;53422;49.296;6.900;2024-03-07T08:15:17;5.40;99.90
66568;DHT22;53422;49.296;6.900;2024-03-07T08:17:44;5.50;99.90
66568;DHT22;53422;49.296;6.900;2024-03-07T08:20:16;5.50;99.90
66568;DHT22;53422;49.296;6.900;2024-03-07T08:22:44;5.60;99.90
66568;DHT22;53422;49.296;6.900;2024-03-07T08:25:14;5.60;99.90
66568;DHT22;53422;49.296;6.900;2024-03-07T08:27:42;5.60;99.90
66568;DHT22;53422;49.296;6.900;2024-03-07T08:30:10;5.60;99.90
66568;DHT22;53422;49.296;6.900;2024-03-07T08:32:40;5.50;99.90
66568;DHT22;53422;49.296;6.900;2024-03-07T08:35:07;5.60;99.90
66568;DHT22;53422;49.296;6.900;2024-03-07T08:37:36;5.60;99.90
66568;DHT22;53422;49.296;6.900;2024-03-07T08:40:02;5.70;99.90
66568;DHT22;53422;49.296;6.900;2024-03-07T08:42:33;5.70;99.90
66568;DHT22;53422;49.296;6.900;2024-03-07T08:45:03;5.70;99.90
66568;DHT22;53422;49.296;6.900;2024-03-07T08:47:32;5.80;99.90
66568;DHT22;53422;49.296;6.900;2024-03-07T08:49:59;5.80;99.90
66568;DHT22;53422;49.296;6.900;2024-03-07T08:52:25;5.90;99.90
66568;DHT22;53422;49.296;6.900;2024-03-07T08:54:50;5.90;99.90
66568;DHT22;53422;49.296;6.900;2024-03-07T08:57:16;6.00;99.90
66568;DHT22;53422;49.296;6.900;2024-03-07T08:59:44;6.00;99.90
66568;DHT22;53422;49.296;6.900;2024-03-07T09:02:10;6.00;99.90
66568;DHT22;53422;49.296;6.900;2024-03-07T09:04:37;6.00;99.90
66568;DHT22;53422;49.296;6.900;2024-03-07T09:07:04;6.10;99.90
66568;DHT22;53422;49.296;6.900;2024-03-07T09:09:32;6.20;99.90
66568;DHT22;53422;49.296;6.900;2024-03-07T09:11:57;6.20;99.90
66568;DHT22;53422;49.296;6.900;2024-03-07T09:14:23;6.20;99.90
66568;DHT22;53422;49.296;6.900;2024-03-07T09:16:49;6.20;99.90
66568;DHT22;53422;49.296;6.900;2024-03-07T09:19:15;6.30;99.90
66568;DHT22;53422;49.296;6.900;2024-03-07T09:21:46;6.30;99.90
66568;DHT22;53422;49.296;6.900;2024-03-07T09:24:12;6.30;99.90
66568;DHT22;53422;49.296;6.900;2024-03-07T09:26:37;6.40;99.90
66568;DHT22;53422;49.296;6.900;2024-03-07T09:29:03;6.40;99.90
66568;DHT22;53422;49.296;6.900;2024-03-07T09:31:32;6.40;99.90
66568;DHT22;53422;49.296;6.900;2024-03-07T09:33:57;6.50;99.90
66568;DHT22;53422;49.296;6.900;2024-03-07T09:36:24;6.50;99.90
66568;DHT22;53422;49.296;6.900;2024-03-07T09:38:50;6.50;99.90
66568;DHT22;53422;49.296;6.900;2024-03-07T09:41:15;6.50;99.90
66568;DHT22;53422;49.296;6.900;2024-03-07T09:43:43;6.40;99.90
66568;DHT22;53422;49.296;6.900;2024-03-07T09:46:12;6.50;99.90
66568;DHT22;53422;49.296;6.900;2024-03-07T09:48:38;6.50;99.90
66568;DHT22;53422;49.296;6.900;2024-03-07T09:51:05;6.50;99.90
66568;DHT22;53422;49.296;6.900;2024-03-07T09:53:33;6.60;99.90
66568;DHT22;53422;49.296;6.900;2024-03-07T09:56:00;6.60;99.90
66568;DHT22;53422;49.296;6.900;2024-03-07T09:58:28;6.70;99.90
66568;DHT22;53422;49.296;6.900;2024-03-07T10:00:56;6.80;99.90
66568;DHT22;53422;49.296;6.900;2024-03-07T10:03:24;6.80;99.90
66568;DHT22;53422;49.296;6.900;2024-03-07T10:05:53;6.80;99.90
66568;DHT22;53422;49.296;6.900;2024-03-07T10:08:19;6.90;99.90
66568;DHT22;53422;49.296;6.900;2024-03-07T10:10:47;6.80;99.90
66568;DHT22;53422;49.296;6.900;2024-03-07T10:13:13;6.90;99.90
66568;DHT22;53422;49.296;6.900;2024-03-07T10:15:39;6.80;97.70
66568;DHT22;53422;49.296;6.900;2024-03-07T10:18:07;6.90;99.50
66568;DHT22;53422;49.296;6.900;2024-03-07T10:20:36;6.80;99.90
66568;DHT22;53422;49.296;6.900;2024-03-07T10:23:03;6.90;97.50
66568;DHT22;53422;49.296;6.900;2024-03-07T10:25:29;6.90;99.40
66568;DHT22;53422;49.296;6.900;2024-03-07T10:27:55;7.00;97.70
66568;DHT22;53422;49.296;6.900;2024-03-07T10:30:21;6.90;97.50
66568;DHT22;53422;49.296;6.900;2024-03-07T10:33:06;6.90;98.40
66568;DHT22;53422;49.296;6.900;2024-03-07T10:35:33;7.00;97.50
66568;DHT22;53422;49.296;6.900;2024-03-07T10:37:59;7.00;98.40
66568;DHT22;53422;49.296;6.900;2024-03-07T10:40:32;6.90;97.50
66568;DHT22;53422;49.296;6.900;2024-03-07T10:42:59;7.00;96.90
66568;DHT22;53422;49.296;6.900;2024-03-07T10:45:33;6.90;95.90
66568;DHT22;53422;49.296;6.900;2024-03-07T10:48:02;6.90;96.50
66568;DHT22;53422;49.296;6.900;2024-03-07T10:50:51;6.90;97.70
66568;DHT22;53422;49.296;6.900;2024-03-07T10:53:40;7.00;96.90
66568;DHT22;53422;49.296;6.900;2024-03-07T10:59:20;6.90;99.30
66568;DHT22;53422;49.296;6.900;2024-03-07T11:01:59;7.00;98.50
66568;DHT22;53422;49.296;6.900;2024-03-07T11:04:32;7.00;98.10
66568;DHT22;53422;49.296;6.900;2024-03-07T11:07:00;7.00;98.80
66568;DHT22;53422;49.296;6.900;2024-03-07T11:09:26;7.00;98.00
66568;DHT22;53422;49.296;6.900;2024-03-07T11:11:59;7.00;96.10
66568;DHT22;53422;49.296;6.900;2024-03-07T11:14:29;7.00;97.70
66568;DHT22;53422;49.296;6.900;2024-03-07T11:16:55;6.90;98.60
66568;DHT22;53422;49.296;6.900;2024-03-07T11:19:31;6.90;96.30
66568;DHT22;53422;49.296;6.900;2024-03-07T11:22:02;6.90;95.60
66568;DHT22;53422;49.296;6.900;2024-03-07T11:24:31;6.90;95.00
66568;DHT22;53422;49.296;6.900;2024-03-07T11:27:03;6.90;97.50
66568;DHT22;53422;49.296;6.900;2024-03-07T11:32:11;6.80;98.00
66568;DHT22;53422;49.296;6.900;2024-03-07T11:34:39;7.00;96.90
66568;DHT22;53422;49.296;6.900;2024-03-07T11:37:08;7.10;98.10
66568;DHT22;53422;49.296;6.900;2024-03-07T11:39:44;7.10;97.80
66568;DHT22;53422;49.296;6.900;2024-03-07T11:42:20;7.10;97.80
66568;DHT22;53422;49.296;6.900;2024-03-07T11:44:49;7.10;95.50
66568;DHT22;53422;49.296;6.900;2024-03-07T11:47:16;7.10;99.00
66568;DHT22;53422;49.296;6.900;2024-03-07T11:49:44;7.00;97.30
66568;DHT22;53422;49.296;6.900;2024-03-07T11:52:12;7.10;97.30
66568;DHT22;53422;49.296;6.900;2024-03-07T11:54:39;7.00;97.40
66568;DHT22;53422;49.296;6.900;2024-03-07T11:57:12;7.00;95.60
66568;DHT22;53422;49.296;6.900;2024-03-07T11:59:42;7.00;96.90
66568;DHT22;53422;49.296;6.900;2024-03-07T12:02:15;6.90;95.00
66568;DHT22;53422;49.296;6.900;2024-03-07T12:04:44;6.90;97.70
66568;DHT22;53422;49.296;6.900;2024-03-07T12:07:10;7.00;95.90
66568;DHT22;53422;49.296;6.900;2024-03-07T12:09:39;6.90;95.60
66568;DHT22;53422;49.296;6.900;2024-03-07T12:12:08;7.00;95.10
66568;DHT22;53422;49.296;6.900;2024-03-07T12:14:35;6.90;96.60
66568;DHT22;53422;49.296;6.900;2024-03-07T12:17:04;6.90;96.40
66568;DHT22;53422;49.296;6.900;2024-03-07T12:19:34;6.90;94.50
66568;DHT22;53422;49.296;6.900;2024-03-07T12:22:03;7.00;93.60
66568;DHT22;53422;49.296;6.900;2024-03-07T12:24:29;7.00;94.90
66568;DHT22;53422;49.296;6.900;2024-03-07T12:27:15;7.10;95.40
66568;DHT22;53422;49.296;6.900;2024-03-07T12:29:42;7.10;91.90
66568;DHT22;53422;49.296;6.900;2024-03-07T12:32:11;7.10;92.20
66568;DHT22;53422;49.296;6.900;2024-03-07T12:34:39;7.10;93.30
66568;DHT22;53422;49.296;6.900;2024-03-07T12:37:11;7.10;92.70
66568;DHT22;53422;49.296;6.900;2024-03-07T12:39:36;7.10;90.50
66568;DHT22;53422;49.296;6.900;2024-03-07T12:42:12;7.10;91.20
66568;DHT22;53422;49.296;6.900;2024-03-07T12:44:46;7.10;92.30
66568;DHT22;53422;49.296;6.900;2024-03-07T12:47:15;7.10;90.70
66568;DHT22;53422;49.296;6.900;2024-03-07T12:49:42;7.10;93.70
66568;DHT22;53422;49.296;6.900;2024-03-07T12:52:08;7.20;91.60
66568;DHT22;53422;49.296;6.900;2024-03-07T12:54:37;7.10;92.30
66568;DHT22;53422;49.296;6.900;2024-03-07T12:57:12;7.20;91.00
66568;DHT22;53422;49.296;6.900;2024-03-07T12:59:38;7.20;93.20
66568;DHT22;53422;49.296;6.900;2024-03-07T13:02:10;7.30;91.70
66568;DHT22;53422;49.296;6.900;2024-03-07T13:04:36;7.30;91.60
66568;DHT22;53422;49.296;6.900;2024-03-07T13:07:05;7.40;94.00
66568;DHT22;53422;49.296;6.900;2024-03-07T13:09:32;7.50;90.50
66568;DHT22;53422;49.296;6.900;2024-03-07T13:11:58;7.50;92.40
66568;DHT22;53422;49.296;6.900;2024-03-07T13:14:27;7.50;91.10
66568;DHT22;53422;49.296;6.900;2024-03-07T13:17:01;7.50;90.00
66568;DHT22;53422;49.296;6.900;2024-03-07T13:19:28;7.60;87.90
66568;DHT22;53422;49.296;6.900;2024-03-07T13:21:54;7.60;90.20
66568;DHT22;53422;49.296;6.900;2024-03-07T13:24:21;7.60;89.80
66568;DHT22;53422;49.296;6.900;2024-03-07T13:26:47;7.60;87.90
66568;DHT22;53422;49.296;6.900;2024-03-07T13:29:14;7.70;87.30
66568;DHT22;53422;49.296;6.900;2024-03-07T13:31:40;7.70;88.60
66568;DHT22;53422;49.296;6.900;2024-03-07T13:34:08;7.70;88.60
66568;DHT22;53422;49.296;6.900;2024-03-07T13:36:41;7.70;84.90
66568;DHT22;53422;49.296;6.900;2024-03-07T13:39:11;7.70;90.00
66568;DHT22;53422;49.296;6.900;2024-03-07T13:41:44;7.80;90.20
66568;DHT22;53422;49.296;6.900;2024-03-07T13:44:14;7.80;90.20
66568;DHT22;53422;49.296;6.900;2024-03-07T13:46:40;7.80;85.70
66568;DHT22;53422;49.296;6.900;2024-03-07T13:49:05;7.80;90.90
66568;DHT22;53422;49.296;6.900;2024-03-07T13:51:42;7.80;88.70
66568;DHT22;53422;49.296;6.900;2024-03-07T13:54:29;7.90;86.80
66568;DHT22;53422;49.296;6.900;2024-03-07T13:57:29;7.90;90.90
66568;DHT22;53422;49.296;6.900;2024-03-07T14:27:41;8.10;81.20
66568;DHT22;53422;49.296;6.900;2024-03-07T14:30:39;8.10;82.30
66568;DHT22;53422;49.296;6.900;2024-03-07T14:33:09;8.10;82.20
66568;DHT22;53422;49.296;6.900;2024-03-07T14:41:13;8.20;80.60
66568;DHT22;53422;49.296;6.900;2024-03-07T14:43:40;8.20;81.10
66568;DHT22;53422;49.296;6.900;2024-03-07T14:46:10;8.20;79.80
66568;DHT22;53422;49.296;6.900;2024-03-07T14:48:39;8.20;79.10
66568;DHT22;53422;49.296;6.900;2024-03-07T14:51:07;8.30;78.10
66568;DHT22;53422;49.296;6.900;2024-03-07T14:53:35;8.30;79.10
66568;DHT22;53422;49.296;6.900;2024-03-07T14:56:01;8.20;82.80
66568;DHT22;53422;49.296;6.900;2024-03-07T14:58:27;8.30;79.90
66568;DHT22;53422;49.296;6.900;2024-03-07T15:00:52;8.30;78.20
66568;DHT22;53422;49.296;6.900;2024-03-07T15:03:19;8.30;78.80
66568;DHT22;53422;49.296;6.900;2024-03-07T15:05:45;8.40;80.80
66568;DHT22;53422;49.296;6.900;2024-03-07T15:08:12;8.40;81.40
66568;DHT22;53422;49.296;6.900;2024-03-07T15:10:44;8.40;79.10
66568;DHT22;53422;49.296;6.900;2024-03-07T15:13:12;8.30;79.30
66568;DHT22;53422;49.296;6.900;2024-03-07T15:15:38;8.30;78.80
66568;DHT22;53422;49.296;6.900;2024-03-07T15:18:06;8.40;82.00
66568;DHT22;53422;49.296;6.900;2024-03-07T15:20:32;8.30;78.40
66568;DHT22;53422;49.296;6.900;2024-03-07T15:22:59;8.20;79.70
66568;DHT22;53422;49.296;6.900;2024-03-07T15:25:26;8.20;78.60
66568;DHT22;53422;49.296;6.900;2024-03-07T15:27:54;8.20;78.60
66568;DHT22;53422;49.296;6.900;2024-03-07T15:30:27;8.20;78.60
66568;DHT22;53422;49.296;6.900;2024-03-07T15:33:02;8.30;80.70
66568;DHT22;53422;49.296;6.900;2024-03-07T15:35:29;8.30;83.80
66568;DHT22;53422;49.296;6.900;2024-03-07T15:37:56;8.20;81.10
66568;DHT22;53422;49.296;6.900;2024-03-07T15:40:23;8.30;82.40
66568;DHT22;53422;49.296;6.900;2024-03-07T15:42:50;8.20;81.60
66568;DHT22;53422;49.296;6.900;2024-03-07T15:45:23;8.30;79.70
66568;DHT22;53422;49.296;6.900;2024-03-07T15:47:51;8.30;79.80
66568;DHT22;53422;49.296;6.900;2024-03-07T15:50:18;8.30;80.00
66568;DHT22;53422;49.296;6.900;2024-03-07T15:52:45;8.20;81.60
66568;DHT22;53422;49.296;6.900;2024-03-07T15:55:11;8.20;83.50
66568;DHT22;53422;49.296;6.900;2024-03-07T15:57:49;8.20;82.60
66568;DHT22;53422;49.296;6.900;2024-03-07T16:00:16;8.20;81.90
66568;DHT22;53422;49.296;6.900;2024-03-07T16:03:05;8.20;83.00
66568;DHT22;53422;49.296;6.900;2024-03-07T16:05:34;8.20;86.60
66568;DHT22;53422;49.296;6.900;2024-03-07T16:08:01;8.10;83.00
66568;DHT22;53422;49.296;6.900;2024-03-07T16:10:31;8.10;81.60
66568;DHT22;53422;49.296;6.900;2024-03-07T16:12:59;8.20;84.10
66568;DHT22;53422;49.296;6.900;2024-03-07T16:15:27;8.20;84.80
66568;DHT22;53422;49.296;6.900;2024-03-07T16:17:53;8.20;84.90
66568;DHT22;53422;49.296;6.900;2024-03-07T16:20:30;8.10;82.10
66568;DHT22;53422;49.296;6.900;2024-03-07T16:22:57;8.10;83.50
66568;DHT22;53422;49.296;6.900;2024-03-07T16:25:24;8.10;83.00
66568;DHT22;53422;49.296;6.900;2024-03-07T16:27:50;8.10;82.80